createdAt,value
2023-05-07T00:01:24.093Z,11.60
2023-05-07T00:03:50.825Z,11.70
2023-05-07T00:06:18.150Z,11.60
2023-05-07T00:08:44.788Z,11.70
2023-05-07T00:11:11.586Z,11.70
2023-05-07T00:13:38.309Z,11.80
2023-05-07T00:16:05.516Z,11.70
2023-05-07T00:18:32.263Z,11.80
2023-05-07T00:20:59.094Z,11.70
2023-05-07T00:23:25.809Z,11.70
2023-05-07T00:25:52.593Z,11.70
2023-05-07T00:28:21.539Z,11.70
2023-05-07T00:30:48.207Z,11.70
2023-05-07T00:33:14.993Z,11.70
2023-05-07T00:35:42.831Z,11.70
2023-05-07T00:38:09.644Z,11.70
2023-05-07T00:40:36.381Z,11.70
2023-05-07T00:43:03.433Z,11.70
2023-05-07T00:45:33.018Z,11.80
2023-05-07T00:48:02.114Z,11.80
2023-05-07T00:50:30.170Z,11.80
2023-05-07T00:52:56.978Z,11.90
2023-05-07T00:55:24.366Z,11.80
2023-05-07T00:57:52.408Z,11.90
2023-05-07T01:00:20.786Z,11.80
2023-05-07T01:02:47.620Z,11.90
2023-05-07T01:05:18.345Z,11.90
2023-05-07T01:07:46.466Z,11.90
2023-05-07T01:10:13.756Z,11.80
2023-05-07T01:12:41.874Z,11.80
2023-05-07T01:15:09.913Z,11.80
2023-05-07T01:17:40.361Z,11.80
2023-05-07T01:20:08.386Z,11.80
2023-05-07T01:22:37.822Z,11.90
2023-05-07T01:25:05.923Z,11.80
2023-05-07T01:27:34.236Z,11.90
2023-05-07T01:30:00.986Z,11.90
2023-05-07T01:32:36.893Z,11.90
2023-05-07T01:35:06.069Z,11.90
2023-05-07T01:37:33.167Z,11.90
2023-05-07T01:40:00.304Z,11.70
2023-05-07T01:42:27.369Z,11.90
2023-05-07T01:44:54.060Z,11.90
2023-05-07T01:47:22.267Z,11.90
2023-05-07T01:49:49.059Z,11.90
2023-05-07T01:52:15.842Z,11.90
2023-05-07T01:54:42.564Z,11.90
2023-05-07T01:57:09.570Z,11.90
2023-05-07T01:59:36.288Z,11.90
2023-05-07T02:02:03.080Z,11.90
2023-05-07T02:04:29.773Z,11.90
2023-05-07T02:06:56.725Z,11.80
2023-05-07T02:09:23.948Z,11.80
2023-05-07T02:11:50.592Z,11.70
2023-05-07T02:14:17.301Z,11.60
2023-05-07T02:16:44.075Z,11.60
2023-05-07T02:19:10.788Z,11.50
2023-05-07T02:21:37.430Z,11.40
2023-05-07T02:24:04.292Z,11.30
2023-05-07T02:26:30.898Z,11.30
2023-05-07T02:28:57.573Z,11.20
2023-05-07T02:31:24.243Z,11.20
2023-05-07T02:33:50.906Z,11.10
2023-05-07T02:36:17.626Z,11.00
2023-05-07T02:38:44.300Z,11.00
2023-05-07T02:41:11.272Z,11.00
2023-05-07T02:43:37.945Z,10.90
2023-05-07T02:46:09.110Z,10.90
2023-05-07T02:48:36.295Z,10.90
2023-05-07T02:51:06.480Z,10.80
2023-05-07T02:53:33.339Z,10.80
2023-05-07T02:56:01.263Z,10.70
2023-05-07T02:58:28.140Z,10.70
2023-05-07T03:00:56.422Z,10.70
2023-05-07T03:03:23.194Z,10.60
2023-05-07T03:05:49.890Z,10.60
2023-05-07T03:08:16.515Z,10.60
2023-05-07T03:10:43.238Z,10.60
2023-05-07T03:13:09.968Z,10.60
2023-05-07T03:15:36.687Z,10.60
2023-05-07T03:18:03.502Z,10.60
2023-05-07T03:20:31.012Z,10.60
2023-05-07T03:22:57.881Z,10.60
2023-05-07T03:25:24.711Z,10.60
2023-05-07T03:27:51.355Z,10.60
2023-05-07T03:30:18.198Z,10.60
2023-05-07T03:32:45.056Z,10.60
2023-05-07T03:35:11.846Z,10.50
2023-05-07T03:37:39.661Z,10.60
2023-05-07T03:40:08.581Z,10.50
2023-05-07T03:42:35.495Z,10.40
2023-05-07T03:45:02.369Z,10.40
2023-05-07T03:47:29.093Z,10.40
2023-05-07T03:49:56.753Z,10.40
2023-05-07T03:52:26.802Z,10.40
2023-05-07T03:54:54.520Z,10.40
2023-05-07T03:57:21.514Z,10.40
2023-05-07T03:59:48.298Z,10.50
2023-05-07T04:02:15.003Z,10.50
2023-05-07T04:04:41.750Z,10.60
2023-05-07T04:07:08.525Z,10.60
2023-05-07T04:09:35.311Z,10.60
2023-05-07T04:12:02.352Z,10.70
2023-05-07T04:14:29.097Z,10.70
2023-05-07T04:16:55.949Z,10.70
2023-05-07T04:19:22.744Z,10.80
2023-05-07T04:21:49.451Z,10.80
2023-05-07T04:24:16.172Z,10.80
2023-05-07T04:26:42.928Z,10.80
2023-05-07T04:29:09.628Z,10.80
2023-05-07T04:31:36.418Z,10.90
2023-05-07T04:34:03.099Z,11.00
2023-05-07T04:36:30.033Z,11.00
2023-05-07T04:38:56.797Z,11.10
2023-05-07T04:41:24.887Z,11.10
2023-05-07T04:43:52.494Z,11.30
2023-05-07T04:46:19.232Z,11.30
2023-05-07T04:48:46.264Z,11.40
2023-05-07T04:51:12.913Z,11.40
2023-05-07T04:53:39.636Z,11.70
2023-05-07T04:56:06.672Z,11.70
2023-05-07T04:58:34.718Z,11.90
2023-05-07T05:01:01.962Z,12.00
2023-05-07T05:03:28.853Z,12.30
2023-05-07T05:05:55.853Z,12.30
2023-05-07T05:08:22.595Z,12.50
2023-05-07T05:10:50.793Z,12.60
2023-05-07T05:13:17.909Z,12.80
2023-05-07T05:15:44.767Z,13.00
2023-05-07T05:18:11.657Z,13.20
2023-05-07T05:20:38.349Z,13.30
2023-05-07T05:23:05.013Z,13.50
2023-05-07T05:25:31.730Z,13.60
2023-05-07T05:27:58.398Z,13.60
2023-05-07T05:30:25.207Z,13.70
2023-05-07T05:32:51.959Z,13.80
2023-05-07T05:35:18.721Z,13.90
2023-05-07T05:37:45.461Z,14.00
2023-05-07T05:40:12.833Z,14.20
2023-05-07T05:42:39.641Z,14.20
2023-05-07T05:45:06.958Z,14.50
2023-05-07T05:47:33.790Z,14.50
2023-05-07T05:50:00.531Z,14.60
2023-05-07T05:52:27.307Z,14.80
2023-05-07T05:54:54.851Z,14.90
2023-05-07T05:57:21.584Z,14.90
2023-05-07T05:59:48.472Z,15.00
2023-05-07T06:02:15.462Z,15.10
2023-05-07T06:04:43.588Z,15.20
2023-05-07T06:07:10.520Z,15.40
2023-05-07T06:09:37.241Z,15.50
2023-05-07T06:12:04.232Z,15.70
2023-05-07T06:14:31.394Z,15.80
2023-05-07T06:16:58.674Z,15.80
2023-05-07T06:19:27.492Z,15.70
2023-05-07T06:21:57.447Z,15.80
2023-05-07T06:24:24.842Z,16.00
2023-05-07T06:26:51.487Z,16.10
2023-05-07T06:29:18.200Z,16.20
2023-05-07T06:31:45.069Z,16.10
2023-05-07T06:34:15.096Z,16.30
2023-05-07T06:36:42.186Z,16.40
2023-05-07T06:39:08.802Z,16.60
2023-05-07T06:41:36.511Z,16.80
2023-05-07T06:44:03.934Z,17.10
2023-05-07T06:46:30.953Z,17.10
2023-05-07T06:48:57.884Z,17.20
2023-05-07T06:51:24.651Z,17.20
2023-05-07T06:53:51.333Z,17.00
2023-05-07T06:56:18.031Z,17.10
2023-05-07T06:58:44.692Z,17.20
2023-05-07T07:01:11.499Z,17.40
2023-05-07T07:03:38.156Z,17.60
2023-05-07T07:06:05.063Z,17.80
2023-05-07T07:08:34.260Z,18.00
2023-05-07T07:11:01.309Z,18.20
2023-05-07T07:13:28.102Z,18.30
2023-05-07T07:15:54.848Z,18.50
2023-05-07T07:18:21.635Z,18.00
2023-05-07T07:20:48.349Z,18.70
2023-05-07T07:23:15.443Z,18.80
2023-05-07T07:25:42.152Z,18.90
2023-05-07T07:28:08.863Z,19.10
2023-05-07T07:30:35.845Z,19.40
2023-05-07T07:33:04.193Z,19.40
2023-05-07T07:35:31.221Z,19.60
2023-05-07T07:37:58.206Z,19.70
2023-05-07T07:40:25.821Z,19.80
2023-05-07T07:42:53.739Z,20.00
2023-05-07T07:45:20.711Z,20.00
2023-05-07T07:47:47.667Z,20.10
2023-05-07T07:50:21.888Z,20.20
2023-05-07T07:52:58.729Z,20.40
2023-05-07T07:55:25.572Z,20.50
2023-05-07T07:57:52.216Z,20.60
2023-05-07T08:00:19.027Z,20.70
2023-05-07T08:02:45.743Z,20.80
2023-05-07T08:05:12.518Z,20.90
2023-05-07T08:07:39.286Z,21.00
2023-05-07T08:10:06.203Z,21.10
2023-05-07T08:12:32.877Z,21.20
2023-05-07T08:14:59.617Z,21.10
2023-05-07T08:17:26.332Z,21.20
2023-05-07T08:19:53.065Z,21.10
2023-05-07T08:22:19.833Z,21.30
2023-05-07T08:24:48.789Z,21.30
2023-05-07T08:27:15.498Z,21.30
2023-05-07T08:29:42.185Z,21.30
2023-05-07T08:32:08.819Z,21.20
2023-05-07T08:34:35.506Z,21.30
2023-05-07T08:37:04.467Z,21.30
2023-05-07T08:39:31.353Z,21.60
2023-05-07T08:42:01.273Z,22.00
2023-05-07T08:44:29.224Z,22.00
2023-05-07T08:46:57.605Z,21.90
2023-05-07T08:49:24.400Z,21.90
2023-05-07T08:51:51.242Z,22.00
2023-05-07T08:54:18.784Z,22.10
2023-05-07T08:56:45.562Z,22.20
2023-05-07T08:59:12.304Z,22.30
2023-05-07T09:01:39.669Z,22.50
2023-05-07T09:04:07.861Z,22.80
2023-05-07T09:06:35.606Z,22.80
2023-05-07T09:09:03.899Z,23.00
2023-05-07T09:11:31.338Z,22.90
2023-05-07T09:14:00.677Z,22.20
2023-05-07T09:16:28.137Z,22.30
2023-05-07T09:18:56.026Z,22.00
2023-05-07T09:21:23.968Z,22.20
2023-05-07T09:23:52.953Z,22.80
2023-05-07T09:26:22.179Z,22.90
2023-05-07T09:28:49.008Z,23.40
2023-05-07T09:31:15.885Z,24.00
2023-05-07T09:33:42.616Z,25.00
2023-05-07T09:36:10.923Z,25.00
2023-05-07T09:38:39.796Z,25.60
2023-05-07T09:41:09.462Z,26.20
2023-05-07T09:43:37.751Z,27.90
2023-05-07T09:46:12.282Z,27.90
2023-05-07T09:48:41.236Z,29.10
2023-05-07T09:51:15.638Z,29.60
2023-05-07T09:53:44.169Z,30.20
2023-05-07T09:56:12.036Z,30.20
2023-05-07T09:58:40.473Z,29.80
2023-05-07T10:01:07.958Z,30.20
2023-05-07T10:03:37.267Z,31.40
2023-05-07T10:06:05.704Z,31.40
2023-05-07T10:08:33.393Z,31.60
2023-05-07T10:11:00.708Z,31.20
2023-05-07T10:13:27.953Z,30.80
2023-05-07T10:15:55.894Z,30.80
2023-05-07T10:18:24.593Z,31.70
2023-05-07T10:20:53.173Z,31.90
2023-05-07T10:23:24.964Z,32.10
2023-05-07T10:25:53.822Z,32.60
2023-05-07T10:28:28.151Z,33.60
2023-05-07T10:31:30.636Z,34.40
2023-05-07T10:33:58.774Z,35.20
2023-05-07T10:36:26.217Z,35.30
2023-05-07T10:38:53.232Z,34.30
2023-05-07T10:41:20.408Z,34.70
2023-05-07T10:43:47.722Z,33.90
2023-05-07T10:46:19.794Z,33.20
2023-05-07T10:49:03.698Z,32.80
2023-05-07T10:51:32.229Z,31.70
2023-05-07T10:54:15.537Z,31.30
2023-05-07T10:56:44.696Z,31.90
2023-05-07T10:59:32.504Z,33.30
2023-05-07T11:02:04.416Z,33.30
2023-05-07T11:04:32.579Z,32.30
2023-05-07T11:07:24.801Z,31.60
2023-05-07T11:09:52.487Z,30.70
2023-05-07T11:12:39.470Z,30.40
2023-05-07T11:15:08.098Z,30.30
2023-05-07T11:17:37.429Z,30.80
2023-05-07T11:20:06.020Z,31.50
2023-05-07T11:22:32.701Z,31.90
2023-05-07T11:25:01.520Z,31.70
2023-05-07T11:27:28.568Z,31.80
2023-05-07T11:29:55.470Z,32.30
2023-05-07T11:32:30.510Z,33.10
2023-05-07T11:34:59.324Z,33.70
2023-05-07T11:37:29.284Z,34.90
2023-05-07T11:40:07.615Z,36.50
2023-05-07T11:42:39.121Z,37.60
2023-05-07T11:45:07.261Z,37.90
2023-05-07T11:47:35.179Z,37.90
2023-05-07T11:50:06.211Z,36.50
2023-05-07T11:52:33.512Z,34.10
2023-05-07T11:55:01.248Z,32.70
2023-05-07T11:57:30.189Z,31.50
2023-05-07T11:59:58.434Z,30.70
2023-05-07T12:02:26.879Z,30.30
2023-05-07T12:04:54.507Z,30.10
2023-05-07T12:07:22.238Z,29.90
2023-05-07T12:09:49.157Z,29.00
2023-05-07T12:12:18.171Z,28.60
2023-05-07T12:14:46.680Z,28.00
2023-05-07T12:17:15.445Z,27.60
2023-05-07T12:19:45.210Z,26.80
2023-05-07T12:22:12.870Z,26.10
2023-05-07T12:25:00.744Z,25.40
2023-05-07T12:27:28.591Z,25.50
2023-05-07T12:29:55.459Z,25.50
2023-05-07T12:32:23.264Z,25.40
2023-05-07T12:34:52.174Z,26.20
2023-05-07T12:37:24.885Z,26.90
2023-05-07T12:40:09.177Z,28.40
2023-05-07T12:42:38.404Z,30.30
2023-05-07T12:45:14.733Z,30.50
2023-05-07T12:47:45.951Z,30.40
2023-05-07T12:50:13.712Z,29.90
2023-05-07T12:52:41.384Z,29.70
2023-05-07T12:55:09.896Z,29.60
2023-05-07T12:57:41.669Z,29.10
2023-05-07T13:00:09.822Z,28.60
2023-05-07T13:02:40.933Z,27.60
2023-05-07T13:05:08.589Z,27.50
2023-05-07T13:07:35.695Z,27.40
2023-05-07T13:10:02.405Z,27.40
2023-05-07T13:12:29.214Z,27.50
2023-05-07T13:14:55.981Z,27.60
2023-05-07T13:17:22.826Z,27.60
2023-05-07T13:19:49.533Z,27.50
2023-05-07T13:22:16.198Z,27.80
2023-05-07T13:24:44.580Z,29.40
2023-05-07T13:27:11.356Z,30.40
2023-05-07T13:29:38.053Z,32.30
2023-05-07T13:32:05.067Z,33.90
2023-05-07T13:34:31.854Z,35.20
2023-05-07T13:36:58.947Z,35.70
2023-05-07T13:39:25.762Z,37.20
2023-05-07T13:41:52.485Z,38.30
2023-05-07T13:44:19.142Z,38.80
2023-05-07T13:46:46.268Z,38.50
2023-05-07T13:49:13.861Z,37.80
2023-05-07T13:51:40.539Z,36.70
2023-05-07T13:54:07.357Z,36.10
2023-05-07T13:56:34.150Z,36.30
2023-05-07T13:59:01.187Z,37.00
2023-05-07T14:01:28.897Z,36.10
2023-05-07T14:03:57.592Z,34.10
2023-05-07T14:06:24.378Z,34.00
2023-05-07T14:08:51.181Z,33.40
2023-05-07T14:11:18.068Z,33.10
2023-05-07T14:13:44.837Z,32.30
2023-05-07T14:16:11.505Z,32.30
2023-05-07T14:18:39.573Z,31.70
2023-05-07T14:21:07.330Z,31.20
2023-05-07T14:23:34.064Z,30.20
2023-05-07T14:26:00.735Z,30.20
2023-05-07T14:28:27.439Z,29.80
2023-05-07T14:30:54.202Z,29.50
2023-05-07T14:33:20.847Z,29.70
2023-05-07T14:35:49.675Z,30.70
2023-05-07T14:38:16.648Z,30.80
2023-05-07T14:40:43.460Z,30.20
2023-05-07T14:43:10.117Z,29.70
2023-05-07T14:45:37.579Z,29.00
2023-05-07T14:48:04.940Z,28.50
2023-05-07T14:50:31.905Z,27.80
2023-05-07T14:52:58.728Z,27.40
2023-05-07T14:55:25.472Z,27.10
2023-05-07T14:57:52.180Z,30.50
2023-05-07T15:00:19.109Z,26.70
2023-05-07T15:02:45.986Z,26.60
2023-05-07T15:05:13.086Z,26.60
2023-05-07T15:07:39.953Z,26.70
2023-05-07T15:10:07.146Z,26.50
2023-05-07T15:12:33.810Z,26.70
2023-05-07T15:15:00.454Z,27.00
2023-05-07T15:17:27.276Z,26.90
2023-05-07T15:19:54.654Z,27.30
2023-05-07T15:22:22.734Z,28.30
2023-05-07T15:24:49.475Z,30.40
2023-05-07T15:27:17.715Z,31.30
2023-05-07T15:29:44.436Z,32.40
2023-05-07T15:32:11.411Z,32.30
2023-05-07T15:34:38.276Z,30.70
2023-05-07T15:37:05.076Z,30.00
2023-05-07T15:39:32.097Z,29.10
2023-05-07T15:41:58.785Z,28.40
2023-05-07T15:44:29.621Z,27.40
2023-05-07T15:46:56.581Z,27.20
2023-05-07T15:49:23.424Z,26.60
2023-05-07T15:51:51.750Z,26.20
2023-05-07T15:54:21.010Z,25.80
2023-05-07T15:56:48.187Z,25.60
2023-05-07T15:59:17.260Z,25.40
2023-05-07T16:01:45.082Z,25.20
2023-05-07T16:04:12.278Z,25.00
2023-05-07T16:06:39.005Z,25.00
2023-05-07T16:09:05.714Z,24.70
2023-05-07T16:11:33.907Z,24.50
2023-05-07T16:14:01.775Z,24.20
2023-05-07T16:16:30.127Z,24.20
2023-05-07T16:18:57.415Z,24.00
2023-05-07T16:21:24.177Z,23.80
2023-05-07T16:23:51.153Z,23.60
2023-05-07T16:26:17.994Z,23.50
2023-05-07T16:28:45.276Z,23.30
2023-05-07T16:31:12.051Z,23.20
2023-05-07T16:33:39.042Z,23.00
2023-05-07T16:36:06.442Z,23.00
2023-05-07T16:38:34.218Z,23.00
2023-05-07T16:41:01.400Z,22.90
2023-05-07T16:43:28.258Z,22.60
2023-05-07T16:45:55.069Z,22.60
2023-05-07T16:48:22.072Z,22.40
2023-05-07T16:50:48.743Z,25.70
2023-05-07T16:53:15.547Z,22.10
2023-05-07T16:55:42.360Z,22.00
2023-05-07T16:58:10.982Z,21.90
2023-05-07T17:00:49.922Z,21.80
2023-05-07T17:03:18.369Z,21.70
2023-05-07T17:05:45.340Z,21.50
2023-05-07T17:08:13.667Z,21.40
2023-05-07T17:10:41.284Z,23.70
2023-05-07T17:13:08.251Z,21.30
2023-05-07T17:15:35.522Z,21.30
2023-05-07T17:18:02.289Z,21.40
2023-05-07T17:20:29.103Z,21.30
2023-05-07T17:22:55.879Z,21.30
2023-05-07T17:25:23.280Z,21.30
2023-05-07T17:27:50.074Z,21.20
2023-05-07T17:30:16.986Z,21.20
2023-05-07T17:32:43.735Z,21.20
2023-05-07T17:35:10.427Z,21.10
2023-05-07T17:37:37.097Z,21.10
2023-05-07T17:40:05.139Z,21.00
2023-05-07T17:42:32.087Z,21.00
2023-05-07T17:44:58.823Z,20.90
2023-05-07T17:47:25.596Z,20.90
2023-05-07T17:49:52.328Z,20.80
2023-05-07T17:52:19.032Z,20.70
2023-05-07T17:54:45.758Z,20.60
2023-05-07T17:57:12.446Z,20.60
2023-05-07T17:59:40.098Z,20.50
2023-05-07T18:02:06.955Z,20.50
2023-05-07T18:04:33.712Z,20.30
2023-05-07T18:07:00.548Z,20.30
2023-05-07T18:09:27.310Z,20.20
2023-05-07T18:11:54.334Z,20.00
2023-05-07T18:14:24.349Z,19.90
2023-05-07T18:16:51.382Z,19.90
2023-05-07T18:19:18.139Z,19.80
2023-05-07T18:21:44.968Z,19.70
2023-05-07T18:24:11.689Z,19.60
2023-05-07T18:26:38.406Z,19.60
2023-05-07T18:29:05.146Z,19.60
2023-05-07T18:31:31.854Z,19.50
2023-05-07T18:33:58.638Z,19.40
2023-05-07T18:36:25.328Z,19.40
2023-05-07T18:38:52.514Z,19.40
2023-05-07T18:41:19.195Z,19.30
2023-05-07T18:43:45.937Z,19.20
2023-05-07T18:46:12.766Z,19.20
2023-05-07T18:48:39.684Z,19.10
2023-05-07T18:51:08.361Z,19.10
2023-05-07T18:53:35.111Z,19.00
2023-05-07T18:56:02.454Z,19.00
2023-05-07T18:58:29.126Z,19.00
2023-05-07T19:00:55.994Z,19.00
2023-05-07T19:03:22.940Z,18.90
2023-05-07T19:05:49.621Z,18.80
2023-05-07T19:08:16.293Z,18.80
2023-05-07T19:10:45.461Z,18.70
2023-05-07T19:13:12.347Z,18.60
2023-05-07T19:15:39.560Z,18.60
2023-05-07T19:18:06.448Z,18.60
2023-05-07T19:20:33.135Z,18.40
2023-05-07T19:22:59.919Z,18.40
2023-05-07T19:25:26.694Z,18.40
2023-05-07T19:27:53.519Z,18.30
2023-05-07T19:30:20.102Z,18.20
2023-05-07T19:32:47.064Z,18.10
2023-05-07T19:35:14.186Z,18.00
2023-05-07T19:37:41.084Z,18.00
2023-05-07T19:40:09.522Z,18.00
2023-05-07T19:42:36.339Z,17.90
2023-05-07T19:45:04.309Z,17.80
2023-05-07T19:47:31.362Z,17.70
2023-05-07T19:49:58.008Z,17.70
2023-05-07T19:52:24.757Z,17.60
2023-05-07T19:54:51.374Z,17.60
2023-05-07T19:57:18.132Z,17.60
2023-05-07T19:59:46.828Z,17.50
2023-05-07T20:02:13.716Z,17.60
2023-05-07T20:04:40.419Z,17.50
2023-05-07T20:07:07.633Z,17.50
2023-05-07T20:09:34.614Z,17.50
2023-05-07T20:12:01.485Z,17.50
2023-05-07T20:14:28.256Z,17.40
2023-05-07T20:16:55.101Z,17.40
2023-05-07T20:19:21.913Z,15.70
2023-05-07T20:21:48.573Z,17.40
2023-05-07T20:24:15.313Z,17.30
2023-05-07T20:26:42.051Z,17.30
2023-05-07T20:29:08.733Z,17.20
2023-05-07T20:31:35.656Z,17.40
2023-05-07T20:34:02.873Z,17.20
2023-05-07T20:36:29.759Z,17.10
2023-05-07T20:38:56.532Z,17.10
2023-05-07T20:41:25.433Z,17.10
2023-05-07T20:43:52.264Z,17.00
2023-05-07T20:46:22.490Z,17.00
2023-05-07T20:48:49.655Z,17.00
2023-05-07T20:51:16.511Z,16.90
2023-05-07T20:53:46.797Z,16.80
2023-05-07T20:56:14.449Z,16.80
2023-05-07T20:58:41.133Z,16.70
2023-05-07T21:01:07.913Z,16.70
2023-05-07T21:03:34.695Z,16.70
2023-05-07T21:06:01.413Z,16.70
2023-05-07T21:08:28.032Z,16.70
2023-05-07T21:10:55.220Z,16.70
2023-05-07T21:13:23.111Z,16.70
2023-05-07T21:15:50.058Z,16.60
2023-05-07T21:18:17.657Z,16.60
2023-05-07T21:20:44.342Z,16.60
2023-05-07T21:23:11.000Z,16.50
2023-05-07T21:25:38.894Z,16.50
2023-05-07T21:28:07.406Z,16.40
2023-05-07T21:30:34.180Z,16.40
2023-05-07T21:35:27.741Z,16.40
2023-05-07T21:37:54.521Z,16.30
2023-05-07T21:40:21.221Z,16.30
2023-05-07T21:42:47.877Z,16.20
2023-05-07T21:45:14.582Z,16.20
2023-05-07T21:47:41.312Z,16.20
2023-05-07T21:50:08.396Z,16.10
2023-05-07T21:52:35.113Z,16.20
2023-05-07T21:55:01.854Z,16.10
2023-05-07T21:57:28.499Z,16.10
2023-05-07T21:59:55.193Z,16.00
2023-05-07T22:02:22.052Z,16.00
2023-05-07T22:04:48.836Z,16.00
2023-05-07T22:07:15.512Z,16.00
2023-05-07T22:09:42.148Z,16.00
2023-05-07T22:12:08.910Z,15.90
2023-05-07T22:14:35.706Z,15.80
2023-05-07T22:17:02.510Z,15.80
2023-05-07T22:19:29.556Z,15.80
2023-05-07T22:21:56.271Z,15.80
2023-05-07T22:24:23.262Z,15.70
2023-05-07T22:26:49.906Z,15.70
2023-05-07T22:29:16.747Z,15.70
2023-05-07T22:31:43.499Z,15.70
2023-05-07T22:34:10.155Z,15.60
2023-05-07T22:36:36.787Z,15.60
2023-05-07T22:39:06.923Z,12.80
2023-05-07T22:41:33.616Z,15.50
2023-05-07T22:44:00.828Z,15.40
2023-05-07T22:46:27.927Z,15.40
2023-05-07T22:48:54.708Z,15.40
2023-05-07T22:51:21.623Z,15.30
2023-05-07T22:53:48.347Z,15.30
2023-05-07T22:56:15.709Z,15.30
2023-05-07T22:58:42.299Z,15.30
2023-05-07T23:01:15.125Z,15.20
2023-05-07T23:03:41.832Z,15.20
2023-05-07T23:06:08.828Z,15.20
2023-05-07T23:08:35.499Z,15.20
2023-05-07T23:11:02.254Z,15.20
2023-05-07T23:13:28.955Z,15.10
2023-05-07T23:15:55.609Z,15.10
2023-05-07T23:18:22.287Z,15.10
2023-05-07T23:20:48.993Z,15.10
2023-05-07T23:23:15.691Z,15.10
2023-05-07T23:25:42.359Z,15.00
2023-05-07T23:28:09.125Z,15.00
2023-05-07T23:30:35.837Z,14.90
2023-05-07T23:33:02.778Z,14.90
2023-05-07T23:35:29.473Z,14.90
2023-05-07T23:37:56.153Z,14.80
2023-05-07T23:40:22.925Z,14.80
2023-05-07T23:42:49.601Z,14.80
2023-05-07T23:45:16.407Z,14.70
2023-05-07T23:47:43.092Z,14.70
2023-05-07T23:50:10.189Z,14.60
2023-05-07T23:52:37.024Z,14.60
2023-05-07T23:55:04.002Z,14.50
2023-05-07T23:57:30.746Z,14.50
